Time;durP1;ratioP1;P1;durP2;ratioP2;P2;SDS_P1;SDS_P2;PMS_P1;PMS_P2;Temp;Humidity;BMP_temperature;BMP_pressure;BME280_temperature;BME280_humidity;BME280_pressure;Samples;Min_cycle;Max_cycle;Signal;HPM_P1;HPM_P2
2023/11/29 00:00:31;;;;;;;12.77;4.80;;;1.60;91.80;;;;;;5049422;28;20221;-74
2023/11/29 00:02:58;;;;;;;15.10;5.63;;;1.60;91.80;;;;;;5033063;28;20748;-73
2023/11/29 00:05:27;;;;;;;14.07;5.53;;;1.60;91.80;;;;;;5051235;28;20201;-76
2023/11/29 00:07:54;;;;;;;12.57;4.87;;;1.60;91.90;;;;;;5051833;28;20653;-76
2023/11/29 00:10:22;;;;;;;12.13;5.37;;;1.60;91.90;;;;;;5032269;28;20221;-76
2023/11/29 00:12:49;;;;;;;9.10;4.40;;;1.40;91.90;;;;;;5027826;28;20202;-76
2023/11/29 00:15:16;;;;;;;7.43;4.07;;;1.40;92.00;;;;;;5033556;28;20212;-75
2023/11/29 00:17:46;;;;;;;7.13;4.00;;;1.30;92.20;;;;;;5050258;28;20198;-75
2023/11/29 00:20:12;;;;;;;7.20;3.73;;;1.20;92.30;;;;;;5051553;28;20198;-76
2023/11/29 00:22:41;;;;;;;6.00;3.57;;;1.20;92.40;;;;;;5051053;28;20208;-75
2023/11/29 00:25:09;;;;;;;5.83;3.53;;;1.20;92.40;;;;;;5051006;28;21266;-75
2023/11/29 00:27:36;;;;;;;4.80;3.00;;;1.20;92.50;;;;;;5043119;28;20197;-75
2023/11/29 00:30:03;;;;;;;4.27;2.77;;;1.20;92.50;;;;;;5043369;28;20315;-76
2023/11/29 00:32:33;;;;;;;5.37;3.40;;;1.10;92.50;;;;;;5052220;28;20304;-76
2023/11/29 00:35:01;;;;;;;5.40;3.30;;;1.20;92.70;;;;;;5050502;28;20208;-76
2023/11/29 00:37:28;;;;;;;5.00;3.20;;;1.10;92.70;;;;;;5033878;28;20255;-76
2023/11/29 00:39:56;;;;;;;4.47;2.60;;;1.20;92.90;;;;;;5051995;28;20273;-74
2023/11/29 00:42:23;;;;;;;3.43;2.40;;;1.20;92.70;;;;;;5048390;28;20553;-75
2023/11/29 00:44:52;;;;;;;5.13;3.40;;;1.20;92.60;;;;;;5032783;28;20206;-74
2023/11/29 00:47:19;;;;;;;5.40;3.10;;;1.20;92.50;;;;;;5035815;28;20655;-75
2023/11/29 00:49:47;;;;;;;5.53;3.43;;;1.20;92.50;;;;;;5032518;28;20639;-74
2023/11/29 00:52:14;;;;;;;2.80;2.40;;;1.30;92.40;;;;;;5036661;28;20202;-74
2023/11/29 00:54:41;;;;;;;6.47;3.00;;;1.30;92.40;;;;;;5045649;28;20228;-74
2023/11/29 00:57:10;;;;;;;4.97;3.30;;;1.30;92.40;;;;;;5051952;28;20209;-77
2023/11/29 00:59:38;;;;;;;3.90;2.97;;;1.30;92.40;;;;;;5027602;28;20253;-77
2023/11/29 01:02:05;;;;;;;4.73;2.97;;;1.30;92.40;;;;;;5051559;28;20190;-76
2023/11/29 01:04:35;;;;;;;10.60;4.00;;;1.20;92.30;;;;;;5032229;28;20205;-76
2023/11/29 01:07:02;;;;;;;19.07;7.20;;;1.20;92.30;;;;;;5032724;28;20206;-76
2023/11/29 01:09:30;;;;;;;13.17;6.20;;;1.10;91.90;;;;;;5030572;28;20225;-77
2023/11/29 01:11:57;;;;;;;12.50;5.53;;;1.00;91.80;;;;;;5033737;28;20208;-76
2023/11/29 01:14:26;;;;;;;15.77;6.83;;;0.90;91.90;;;;;;5049679;28;20696;-77
2023/11/29 01:16:53;;;;;;;16.40;7.00;;;0.90;91.90;;;;;;5043761;28;20198;-76
2023/11/29 01:19:23;;;;;;;12.97;5.67;;;0.90;91.70;;;;;;5027959;28;20204;-77
2023/11/29 01:21:50;;;;;;;11.43;5.50;;;0.80;91.70;;;;;;5051241;28;20201;-77
2023/11/29 01:24:17;;;;;;;8.87;4.27;;;0.80;91.60;;;;;;5032504;28;20205;-76
2023/11/29 01:26:44;;;;;;;11.53;5.37;;;0.80;91.80;;;;;;5049967;28;20544;-76
2023/11/29 01:29:11;;;;;;;8.83;4.67;;;0.80;91.80;;;;;;5032575;28;20880;-75
2023/11/29 01:31:40;;;;;;;10.00;5.30;;;0.90;91.80;;;;;;5051705;28;20205;-76
2023/11/29 01:34:07;;;;;;;10.00;4.83;;;0.90;91.80;;;;;;5030544;28;20775;-75
2023/11/29 01:36:34;;;;;;;11.27;4.90;;;0.90;91.70;;;;;;5033068;28;20201;-75
2023/11/29 01:39:01;;;;;;;8.97;4.40;;;0.90;91.80;;;;;;5050104;28;20214;-75
2023/11/29 01:41:28;;;;;;;11.90;5.33;;;0.80;91.80;;;;;;5032981;28;20229;-75
2023/11/29 01:43:55;;;;;;;9.37;4.23;;;0.80;91.70;;;;;;5023340;28;20204;-74
2023/11/29 01:46:22;;;;;;;7.97;3.97;;;0.80;91.70;;;;;;5051229;28;20217;-74
2023/11/29 01:48:52;;;;;;;8.20;4.33;;;0.70;91.70;;;;;;5031798;28;20210;-77
2023/11/29 01:51:19;;;;;;;7.33;4.20;;;0.80;91.80;;;;;;5049319;28;20220;-76
2023/11/29 01:53:48;;;;;;;6.50;3.93;;;0.90;91.70;;;;;;5045194;28;20272;-77
2023/11/29 01:56:16;;;;;;;5.07;3.73;;;0.90;91.70;;;;;;5031237;28;20205;-77
2023/11/29 01:58:43;;;;;;;6.33;3.57;;;0.90;91.70;;;;;;5028832;28;20208;-76
2023/11/29 02:01:11;;;;;;;7.83;4.23;;;0.90;91.70;;;;;;5032615;28;20194;-75
2023/11/29 02:03:38;;;;;;;8.53;4.07;;;0.90;91.70;;;;;;5031901;28;20211;-75
2023/11/29 02:06:08;;;;;;;6.43;3.90;;;0.90;91.70;;;;;;5049963;28;20198;-76
2023/11/29 02:08:37;;;;;;;7.10;3.37;;;0.90;91.70;;;;;;5026247;28;20552;-75
2023/11/29 02:11:04;;;;;;;5.90;3.03;;;0.90;91.70;;;;;;5032364;28;20303;-75
2023/11/29 02:13:31;;;;;;;6.80;3.40;;;0.90;91.70;;;;;;5031988;28;20331;-75
2023/11/29 02:16:00;;;;;;;5.03;3.20;;;0.90;91.70;;;;;;5030041;28;20288;-78
2023/11/29 02:18:27;;;;;;;4.67;2.80;;;0.90;91.70;;;;;;5027062;28;20530;-78
2023/11/29 02:20:54;;;;;;;6.37;3.33;;;0.90;91.70;;;;;;5049820;28;20273;-75
2023/11/29 02:23:28;;;;;;;6.40;3.00;;;0.90;91.70;;;;;;5043964;28;20680;-78
2023/11/29 02:25:57;;;;;;;9.87;3.33;;;1.00;91.70;;;;;;5049963;28;20196;-78
2023/11/29 02:28:24;;;;;;;6.23;2.87;;;1.00;91.60;;;;;;5051401;28;20182;-76
2023/11/29 02:30:51;;;;;;;4.97;2.50;;;0.90;91.60;;;;;;5050332;28;20225;-76
2023/11/29 02:33:20;;;;;;;3.87;2.40;;;0.90;91.90;;;;;;5031829;28;20202;-75
2023/11/29 02:35:49;;;;;;;6.40;3.30;;;1.00;91.60;;;;;;5053120;28;20198;-75
2023/11/29 02:38:17;;;;;;;8.00;3.40;;;0.90;91.50;;;;;;5035887;28;20208;-75
2023/11/29 02:40:44;;;;;;;7.90;3.37;;;1.00;91.50;;;;;;5035148;28;20198;-74
2023/11/29 02:43:12;;;;;;;6.00;3.30;;;1.00;91.50;;;;;;5053990;28;20223;-75
2023/11/29 02:45:39;;;;;;;4.53;2.73;;;1.00;91.50;;;;;;5052927;28;20615;-75
2023/11/29 02:48:07;;;;;;;9.10;4.17;;;0.90;91.50;;;;;;5045224;28;20667;-74
2023/11/29 02:50:34;;;;;;;6.87;3.60;;;0.90;91.50;;;;;;5033917;28;20218;-73
2023/11/29 02:53:01;;;;;;;10.57;4.50;;;0.80;91.50;;;;;;5034770;28;20216;-72
2023/11/29 02:55:30;;;;;;;11.67;4.33;;;0.80;91.60;;;;;;5034710;28;20584;-74
2023/11/29 02:57:58;;;;;;;7.60;3.63;;;0.80;91.60;;;;;;5032430;28;20205;-73
2023/11/29 03:00:27;;;;;;;12.83;5.13;;;0.80;91.70;;;;;;5050838;28;20627;-73
2023/11/29 03:02:55;;;;;;;10.90;4.47;;;0.80;91.60;;;;;;5033884;28;20205;-74
2023/11/29 03:05:22;;;;;;;9.10;4.50;;;0.80;91.60;;;;;;5048529;28;20304;-73
2023/11/29 03:07:49;;;;;;;9.50;4.50;;;0.70;91.60;;;;;;5032302;28;20210;-75
2023/11/29 03:10:16;;;;;;;5.93;3.17;;;0.70;91.60;;;;;;5024746;28;20209;-76
2023/11/29 03:12:44;;;;;;;6.63;3.13;;;0.70;91.70;;;;;;5053330;28;20669;-76
2023/11/29 03:15:14;;;;;;;7.27;3.17;;;0.70;91.70;;;;;;5047006;28;20205;-76
2023/11/29 03:17:43;;;;;;;3.17;2.30;;;0.60;91.60;;;;;;5032084;28;20210;-75
2023/11/29 03:20:11;;;;;;;2.93;2.00;;;0.60;91.70;;;;;;5029156;28;20550;-75
2023/11/29 03:22:38;;;;;;;2.47;1.90;;;0.70;91.80;;;;;;5053202;28;20194;-75
2023/11/29 03:25:06;;;;;;;2.40;1.90;;;1.50;92.10;;;;;;5049383;28;20197;-75
2023/11/29 03:27:33;;;;;;;1.73;1.50;;;0.70;91.70;;;;;;5034530;28;20202;-76
2023/11/29 03:30:01;;;;;;;3.97;2.20;;;0.70;91.70;;;;;;5033887;28;20635;-74
2023/11/29 03:32:28;;;;;;;1.60;1.50;;;0.70;91.70;;;;;;5052475;28;20206;-74
2023/11/29 03:34:56;;;;;;;2.10;1.90;;;0.70;91.70;;;;;;5050383;28;20209;-75
2023/11/29 03:37:23;;;;;;;3.07;1.70;;;0.70;91.70;;;;;;5034211;28;20198;-75
2023/11/29 03:39:50;;;;;;;2.53;1.70;;;0.70;91.60;;;;;;5051706;28;20198;-75
2023/11/29 03:42:17;;;;;;;2.63;1.80;;;0.90;91.70;;;;;;5033689;28;20570;-74
2023/11/29 03:44:45;;;;;;;3.10;2.03;;;0.80;91.60;;;;;;5051574;28;20611;-74
2023/11/29 03:47:15;;;;;;;3.60;2.30;;;0.90;91.50;;;;;;5052540;28;20194;-76
2023/11/29 03:49:42;;;;;;;2.40;2.03;;;0.80;91.40;;;;;;5026114;28;20205;-75
2023/11/29 03:52:11;;;;;;;2.67;2.40;;;0.80;91.40;;;;;;5045140;28;20197;-74
2023/11/29 03:54:38;;;;;;;3.10;2.27;;;0.80;91.40;;;;;;5026292;28;20202;-75
2023/11/29 03:57:06;;;;;;;4.80;2.80;;;0.80;91.40;;;;;;5052724;28;20314;-74
2023/11/29 03:59:35;;;;;;;2.57;2.37;;;0.80;91.30;;;;;;5051771;28;20222;-75
2023/11/29 04:02:02;;;;;;;6.03;2.80;;;0.70;91.20;;;;;;5052558;28;20232;-75
2023/11/29 04:04:30;;;;;;;4.20;2.93;;;0.70;91.20;;;;;;5032347;28;20220;-75
2023/11/29 04:07:01;;;;;;;4.50;2.80;;;0.70;91.10;;;;;;5034698;28;20233;-75
2023/11/29 04:09:29;;;;;;;4.90;3.10;;;0.70;91.00;;;;;;5032777;28;20204;-74
2023/11/29 04:11:57;;;;;;;8.13;3.67;;;0.60;91.00;;;;;;5034378;28;20221;-73
2023/11/29 04:14:24;;;;;;;5.93;3.50;;;0.60;90.90;;;;;;5032759;28;20201;-73
2023/11/29 04:16:52;;;;;;;5.67;2.67;;;0.60;90.80;;;;;;5052227;28;20204;-73
2023/11/29 04:19:19;;;;;;;5.60;3.70;;;0.50;90.80;;;;;;5032327;28;20561;-72
2023/11/29 04:21:46;;;;;;;4.93;3.47;;;0.50;90.80;;;;;;5032418;28;20198;-72
2023/11/29 04:24:13;;;;;;;7.23;3.23;;;0.40;90.80;;;;;;5051281;28;20221;-71
2023/11/29 04:26:42;;;;;;;6.90;3.97;;;0.40;90.90;;;;;;5030502;28;20252;-72
2023/11/29 04:29:11;;;;;;;10.73;5.10;;;0.40;90.90;;;;;;5046727;28;20217;-73
2023/11/29 04:31:39;;;;;;;9.67;4.00;;;0.40;90.90;;;;;;5029360;28;20727;-72
2023/11/29 04:34:07;;;;;;;4.80;3.27;;;0.40;90.90;;;;;;5049937;28;20201;-72
2023/11/29 04:36:35;;;;;;;5.97;2.70;;;0.40;90.90;;;;;;5051804;28;20194;-73
2023/11/29 04:39:05;;;;;;;3.70;2.30;;;0.30;91.00;;;;;;5033107;28;20237;-72
2023/11/29 04:41:32;;;;;;;3.50;2.47;;;0.20;91.10;;;;;;5029069;28;20266;-72
2023/11/29 04:44:01;;;;;;;5.00;2.50;;;0.20;91.10;;;;;;5033517;28;20284;-72
2023/11/29 04:46:29;;;;;;;5.97;2.93;;;0.20;91.20;;;;;;5032686;28;20620;-70
2023/11/29 04:48:56;;;;;;;3.50;2.60;;;0.20;91.00;;;;;;5032099;28;20202;-74
2023/11/29 04:51:23;;;;;;;3.90;2.50;;;0.20;91.00;;;;;;5050809;28;20221;-72
2023/11/29 04:53:51;;;;;;;3.67;2.63;;;0.20;91.00;;;;;;5032363;28;20248;-72
2023/11/29 04:56:19;;;;;;;3.63;2.67;;;0.20;91.00;;;;;;5026740;28;20272;-73
2023/11/29 04:58:46;;;;;;;4.33;3.20;;;0.30;91.10;;;;;;5027961;28;20305;-73
2023/11/29 05:01:15;;;;;;;3.20;2.53;;;0.30;90.90;;;;;;5049156;28;20216;-72
2023/11/29 05:03:44;;;;;;;3.90;2.73;;;0.20;90.90;;;;;;5042333;28;20750;-74
2023/11/29 05:06:12;;;;;;;5.00;2.80;;;0.20;91.00;;;;;;5046930;28;20203;-74
2023/11/29 05:08:39;;;;;;;7.67;3.93;;;0.10;90.80;;;;;;5033272;28;20209;-74
2023/11/29 05:11:06;;;;;;;5.87;3.87;;;0.20;90.90;;;;;;5033036;28;20217;-74
2023/11/29 05:13:33;;;;;;;5.40;3.47;;;0.30;90.90;;;;;;5051131;28;20288;-72
2023/11/29 05:16:00;;;;;;;5.67;3.67;;;0.10;90.80;;;;;;5050770;28;20182;-73
2023/11/29 05:18:29;;;;;;;6.90;3.90;;;0.20;90.90;;;;;;5026818;28;20574;-73
2023/11/29 05:20:57;;;;;;;9.80;4.80;;;0.30;90.90;;;;;;5033516;28;20236;-72
2023/11/29 05:23:25;;;;;;;9.13;5.13;;;0.30;90.90;;;;;;5021023;28;20216;-72
2023/11/29 05:25:52;;;;;;;8.87;5.23;;;0.30;90.70;;;;;;5031289;28;20209;-73
2023/11/29 05:28:24;;;;;;;9.73;4.90;;;0.20;90.70;;;;;;5050861;28;20201;-74
2023/11/29 05:30:51;;;;;;;8.27;4.90;;;0.20;90.80;;;;;;5049965;28;20213;-72
2023/11/29 05:33:18;;;;;;;9.13;4.47;;;0.20;90.80;;;;;;5049156;28;20645;-72
2023/11/29 05:35:47;;;;;;;7.80;4.40;;;0.10;90.80;;;;;;5025089;28;20209;-72
2023/11/29 05:38:14;;;;;;;7.50;4.17;;;0.00;90.90;;;;;;5032345;28;20255;-71
2023/11/29 05:40:41;;;;;;;6.80;3.90;;;0.00;90.90;;;;;;5050457;28;20205;-73
2023/11/29 05:43:08;;;;;;;6.83;3.90;;;0.00;91.00;;;;;;5024878;28;20209;-73
2023/11/29 05:45:37;;;;;;;7.47;4.07;;;0.00;91.00;;;;;;5049793;28;20210;-74
2023/11/29 05:48:04;;;;;;;10.43;4.00;;;-0.10;91.00;;;;;;5031512;28;20554;-74
2023/11/29 05:50:31;;;;;;;5.13;3.33;;;-0.10;91.10;;;;;;5031173;28;20218;-73
2023/11/29 05:53:00;;;;;;;7.97;4.23;;;-0.20;91.10;;;;;;5030995;28;20205;-74
2023/11/29 05:55:27;;;;;;;17.27;7.10;;;-0.10;91.20;;;;;;5047257;28;20201;-73
2023/11/29 05:57:54;;;;;;;14.00;6.20;;;-0.10;91.20;;;;;;5048533;28;20197;-73
2023/11/29 06:00:23;;;;;;;12.53;5.97;;;-0.10;91.10;;;;;;5049402;28;20237;-73
2023/11/29 06:02:50;;;;;;;13.90;6.10;;;0.00;91.10;;;;;;5045201;28;20197;-74
2023/11/29 06:05:17;;;;;;;11.80;5.57;;;0.10;91.10;;;;;;5049656;28;20186;-74
2023/11/29 06:07:46;;;;;;;9.63;5.07;;;0.00;91.10;;;;;;5047197;28;20285;-73
2023/11/29 06:10:15;;;;;;;7.67;4.30;;;0.00;91.00;;;;;;5054062;28;20661;-75
2023/11/29 06:12:42;;;;;;;9.17;4.40;;;0.20;91.10;;;;;;5054064;28;20221;-71
2023/11/29 06:15:13;;;;;;;18.33;5.83;;;0.10;91.10;;;;;;5053901;28;20214;-72
2023/11/29 06:17:42;;;;;;;22.63;8.03;;;0.10;91.00;;;;;;5049888;28;20221;-71
2023/11/29 06:20:11;;;;;;;20.47;7.83;;;0.10;91.00;;;;;;5035412;28;20213;-74
2023/11/29 06:22:41;;;;;;;27.13;9.93;;;0.10;90.90;;;;;;5054204;28;20281;-74
2023/11/29 06:25:08;;;;;;;29.30;12.50;;;0.30;90.80;;;;;;5033919;28;20217;-72
2023/11/29 06:27:37;;;;;;;25.27;9.97;;;0.00;90.60;;;;;;5051966;28;20244;-72
2023/11/29 06:30:05;;;;;;;18.37;8.27;;;0.00;91.00;;;;;;5053651;28;20518;-72
2023/11/29 06:32:32;;;;;;;22.70;9.33;;;0.00;90.80;;;;;;5035133;28;20210;-73
2023/11/29 06:34:59;;;;;;;19.07;7.50;;;0.00;90.70;;;;;;5049471;28;20723;-73
2023/11/29 06:37:26;;;;;;;14.40;7.17;;;-0.10;90.50;;;;;;5034746;28;20240;-73
2023/11/29 06:39:54;;;;;;;11.40;5.97;;;-0.10;90.50;;;;;;5053374;28;20229;-72
2023/11/29 06:42:21;;;;;;;11.93;5.60;;;-0.10;90.50;;;;;;5034971;28;20194;-72
2023/11/29 06:44:52;;;;;;;11.97;5.80;;;0.00;90.60;;;;;;5018512;28;20214;-72
2023/11/29 06:47:19;;;;;;;11.23;6.00;;;0.00;90.60;;;;;;5048162;28;20209;-73
2023/11/29 06:49:46;;;;;;;11.80;6.13;;;-0.10;90.60;;;;;;5052410;28;20197;-76
2023/11/29 06:52:13;;;;;;;10.00;5.10;;;0.00;90.60;;;;;;5035717;28;20213;-75
2023/11/29 06:54:40;;;;;;;12.27;6.17;;;0.10;90.60;;;;;;5051858;28;20233;-74
2023/11/29 06:57:07;;;;;;;11.60;5.90;;;0.10;90.60;;;;;;5053787;28;20665;-73
2023/11/29 06:59:35;;;;;;;13.27;6.23;;;0.10;90.50;;;;;;5026484;28;20791;-73
2023/11/29 07:02:04;;;;;;;10.23;5.20;;;0.20;90.50;;;;;;5025355;28;20190;-73
2023/11/29 07:04:34;;;;;;;10.87;5.27;;;0.10;90.40;;;;;;5050019;28;20186;-74
2023/11/29 07:07:05;;;;;;;10.60;5.37;;;0.10;90.50;;;;;;5031796;28;20212;-74
2023/11/29 07:09:32;;;;;;;9.43;4.53;;;0.40;90.70;;;;;;5046278;28;20760;-74
2023/11/29 07:11:59;;;;;;;9.53;4.67;;;0.30;90.50;;;;;;5030255;28;20225;-74
2023/11/29 07:14:26;;;;;;;9.40;5.00;;;0.30;90.50;;;;;;5026343;28;20213;-74
2023/11/29 07:16:53;;;;;;;8.33;4.60;;;0.30;90.40;;;;;;5028995;28;20214;-72
2023/11/29 07:19:22;;;;;;;8.20;4.43;;;0.40;90.30;;;;;;5049952;28;20194;-74
2023/11/29 07:21:49;;;;;;;10.10;4.90;;;0.40;90.30;;;;;;5030624;28;20304;-74
2023/11/29 07:24:16;;;;;;;11.07;5.37;;;0.50;90.20;;;;;;5051065;28;20194;-74
2023/11/29 07:26:43;;;;;;;12.73;6.23;;;0.60;90.10;;;;;;5046363;28;20664;-75
2023/11/29 07:29:10;;;;;;;17.30;7.03;;;0.60;89.70;;;;;;5028947;28;20209;-74
2023/11/29 07:31:37;;;;;;;17.50;7.57;;;0.60;89.20;;;;;;5031871;28;20312;-75
2023/11/29 07:34:04;;;;;;;15.40;6.70;;;0.70;89.20;;;;;;5030913;28;20580;-75
2023/11/29 07:36:33;;;;;;;25.90;10.90;;;0.70;89.10;;;;;;5031548;28;20680;-74
2023/11/29 07:39:00;;;;;;;31.87;13.73;;;1.10;89.30;;;;;;5026050;28;20209;-65
2023/11/29 07:41:27;;;;;;;33.20;13.77;;;0.80;88.50;;;;;;5048842;28;20193;-64
2023/11/29 07:43:54;;;;;;;30.77;13.40;;;0.80;88.50;;;;;;5049754;28;20205;-65
2023/11/29 07:46:21;;;;;;;38.30;15.30;;;0.80;88.00;;;;;;5029560;28;20213;-65
2023/11/29 07:48:48;;;;;;;33.20;13.63;;;0.90;87.50;;;;;;5042214;28;20205;-64
2023/11/29 07:51:15;;;;;;;41.70;13.23;;;0.70;86.70;;;;;;5044708;28;20202;-64
2023/11/29 07:53:44;;;;;;;32.13;11.77;;;0.70;86.60;;;;;;5041490;28;20194;-65
2023/11/29 07:56:12;;;;;;;26.00;10.37;;;0.70;86.60;;;;;;5029787;28;20565;-63
2023/11/29 07:58:39;;;;;;;24.13;9.40;;;0.80;86.30;;;;;;5048993;28;20676;-64
2023/11/29 08:01:06;;;;;;;23.17;10.43;;;0.80;86.30;;;;;;5046668;28;20197;-64
2023/11/29 08:03:34;;;;;;;24.43;9.33;;;0.90;86.10;;;;;;5027097;28;20214;-64
2023/11/29 08:06:01;;;;;;;26.43;9.80;;;0.90;86.10;;;;;;5048359;28;20194;-65
2023/11/29 08:08:28;;;;;;;30.43;10.87;;;1.00;86.10;;;;;;5029442;28;20305;-64
2023/11/29 08:10:57;;;;;;;30.50;12.93;;;1.10;86.00;;;;;;5048412;28;20248;-64
2023/11/29 08:13:25;;;;;;;29.83;12.17;;;1.10;85.80;;;;;;5046830;28;20271;-64
2023/11/29 08:15:52;;;;;;;29.30;11.53;;;1.10;86.00;;;;;;5048782;28;20198;-64
2023/11/29 08:18:19;;;;;;;32.67;13.30;;;1.00;86.00;;;;;;5047876;28;20557;-64
2023/11/29 08:20:47;;;;;;;36.13;14.70;;;1.10;86.10;;;;;;5049325;28;20209;-64
2023/11/29 08:23:14;;;;;;;34.97;13.97;;;1.10;85.80;;;;;;5047061;28;20194;-64
2023/11/29 08:25:41;;;;;;;28.33;12.53;;;1.10;85.50;;;;;;5042184;28;20211;-64
2023/11/29 08:28:10;;;;;;;20.97;9.83;;;1.10;85.10;;;;;;5040368;28;20210;-63
2023/11/29 08:30:37;;;;;;;26.77;10.23;;;1.10;84.90;;;;;;5047389;28;20268;-65
2023/11/29 08:33:04;;;;;;;26.30;9.40;;;1.10;84.70;;;;;;5021940;28;20221;-64
2023/11/29 08:35:31;;;;;;;20.30;8.17;;;1.10;84.60;;;;;;5048535;28;20198;-65
2023/11/29 08:37:58;;;;;;;19.70;8.43;;;1.10;84.50;;;;;;5044273;28;20683;-64
2023/11/29 08:40:25;;;;;;;15.07;7.20;;;1.10;84.60;;;;;;5049423;28;20193;-64
2023/11/29 08:42:55;;;;;;;16.50;7.43;;;1.10;84.80;;;;;;5021976;28;20557;-64
2023/11/29 08:45:25;;;;;;;16.83;7.80;;;1.20;85.00;;;;;;5043935;28;20194;-65
2023/11/29 08:47:52;;;;;;;20.43;8.30;;;1.30;84.60;;;;;;5045421;28;20307;-64
2023/11/29 08:50:19;;;;;;;22.20;8.73;;;1.30;84.40;;;;;;5049290;28;20245;-65
2023/11/29 08:52:49;;;;;;;21.77;8.50;;;1.30;84.00;;;;;;5047189;28;20259;-64
2023/11/29 08:55:16;;;;;;;23.50;8.90;;;1.30;84.90;;;;;;5024462;28;20201;-64
2023/11/29 08:57:44;;;;;;;20.43;7.90;;;1.40;84.40;;;;;;5048744;28;20213;-64
2023/11/29 09:00:12;;;;;;;24.67;9.00;;;1.40;84.50;;;;;;5027766;28;20554;-65
2023/11/29 09:02:40;;;;;;;15.20;7.33;;;1.40;84.30;;;;;;5029161;28;20284;-65
2023/11/29 09:05:09;;;;;;;20.37;7.30;;;1.40;84.10;;;;;;5029096;28;20197;-63
2023/11/29 09:07:39;;;;;;;12.57;5.90;;;1.50;84.40;;;;;;5047761;28;20209;-65
2023/11/29 09:10:07;;;;;;;14.27;6.30;;;1.50;84.60;;;;;;5048447;28;20197;-64
2023/11/29 09:12:35;;;;;;;14.80;6.70;;;1.60;84.90;;;;;;5046792;28;20321;-65
2023/11/29 09:15:05;;;;;;;13.80;6.33;;;1.60;84.80;;;;;;5048268;28;20193;-65
2023/11/29 09:17:34;;;;;;;11.50;5.63;;;1.70;84.90;;;;;;5027980;28;20205;-65
2023/11/29 09:20:02;;;;;;;11.43;5.57;;;1.80;84.80;;;;;;5046953;28;20265;-64
2023/11/29 09:22:30;;;;;;;9.43;5.47;;;1.90;84.40;;;;;;5043416;28;20205;-64
2023/11/29 09:24:57;;;;;;;10.97;4.80;;;1.90;83.80;;;;;;5029451;28;20210;-64
2023/11/29 09:27:24;;;;;;;8.00;4.43;;;2.00;83.80;;;;;;5047306;28;20233;-64
2023/11/29 09:29:52;;;;;;;9.73;4.73;;;2.00;83.80;;;;;;5039265;28;20205;-65
2023/11/29 09:32:19;;;;;;;9.97;4.43;;;2.10;83.80;;;;;;5046248;28;20225;-65
2023/11/29 09:34:46;;;;;;;10.33;5.00;;;2.10;83.80;;;;;;5046854;28;20198;-65
2023/11/29 09:37:14;;;;;;;8.63;4.60;;;2.10;83.60;;;;;;5043605;28;20842;-65
2023/11/29 09:39:42;;;;;;;12.63;5.30;;;2.20;83.60;;;;;;5046755;28;20200;-63
2023/11/29 09:42:10;;;;;;;9.07;4.80;;;2.20;83.40;;;;;;5048601;28;20662;-64
2023/11/29 09:44:40;;;;;;;7.33;4.17;;;2.30;83.20;;;;;;5046522;28;20243;-64
2023/11/29 09:47:08;;;;;;;9.87;5.37;;;2.60;83.30;;;;;;5042271;28;20194;-64
2023/11/29 09:49:35;;;;;;;13.43;6.07;;;2.70;83.20;;;;;;5049896;28;20652;-64
2023/11/29 09:52:02;;;;;;;37.10;12.93;;;2.70;82.90;;;;;;5050552;28;20278;-65
2023/11/29 09:54:32;;;;;;;34.27;13.97;;;2.80;82.60;;;;;;5051105;28;20252;-64
2023/11/29 09:56:59;;;;;;;27.47;10.70;;;2.80;82.50;;;;;;5052207;28;20197;-65
2023/11/29 09:59:26;;;;;;;23.57;10.27;;;2.70;82.00;;;;;;5050547;28;20240;-63
2023/11/29 10:01:53;;;;;;;24.27;10.57;;;2.60;82.00;;;;;;5050473;28;20268;-63
2023/11/29 10:04:20;;;;;;;25.40;10.30;;;2.60;82.20;;;;;;5033352;28;20295;-63
2023/11/29 10:06:47;;;;;;;36.50;13.27;;;2.60;82.40;;;;;;5049212;28;20198;-64
2023/11/29 10:09:16;;;;;;;46.33;14.33;;;2.60;82.10;;;;;;5051650;28;20614;-63
2023/11/29 10:11:45;;;;;;;38.87;13.87;;;2.50;82.10;;;;;;5032566;28;20240;-65
2023/11/29 10:14:12;;;;;;;27.50;11.40;;;2.40;82.20;;;;;;5051848;28;20196;-63
2023/11/29 10:16:39;;;;;;;24.80;9.93;;;2.40;82.70;;;;;;5050725;28;20197;-64
2023/11/29 10:19:11;;;;;;;34.87;10.63;;;2.40;83.00;;;;;;5033384;28;20425;-65
2023/11/29 10:21:42;;;;;;;24.97;11.13;;;2.40;83.00;;;;;;5050774;28;20189;-66
2023/11/29 10:24:09;;;;;;;30.07;11.80;;;2.50;83.00;;;;;;5045450;28;20208;-65
2023/11/29 10:26:37;;;;;;;33.67;12.70;;;2.70;82.80;;;;;;5049683;28;20206;-65
2023/11/29 10:29:05;;;;;;;49.20;17.97;;;2.80;82.70;;;;;;5033286;28;20641;-64
2023/11/29 10:31:33;;;;;;;41.77;16.57;;;2.80;82.20;;;;;;5026779;28;20209;-65
2023/11/29 10:34:03;;;;;;;36.03;14.43;;;2.80;82.00;;;;;;5048509;28;20611;-65
2023/11/29 10:36:32;;;;;;;34.60;14.23;;;2.80;82.20;;;;;;5025237;28;20597;-65
2023/11/29 10:39:08;;;;;;;23.30;11.23;;;2.60;82.00;;;;;;5032261;28;20259;-65
2023/11/29 10:41:43;;;;;;;24.20;10.53;;;2.50;82.00;;;;;;5045363;28;20656;-65
2023/11/29 10:44:14;;;;;;;25.33;9.57;;;2.50;82.20;;;;;;5051298;28;20193;-65
2023/11/29 10:46:42;;;;;;;20.90;8.83;;;2.40;82.20;;;;;;5050358;28;20194;-64
2023/11/29 10:49:15;;;;;;;22.07;9.37;;;2.30;82.20;;;;;;5050311;28;20672;-65
2023/11/29 10:51:45;;;;;;;23.70;10.30;;;2.30;82.80;;;;;;5049432;28;20213;-65
2023/11/29 10:54:14;;;;;;;22.60;9.23;;;2.20;83.00;;;;;;5050696;28;20197;-65
2023/11/29 10:56:45;;;;;;;24.80;10.87;;;2.10;83.10;;;;;;5050805;28;20197;-65
2023/11/29 10:59:23;;;;;;;20.33;9.83;;;2.20;83.20;;;;;;5050849;28;20230;-65
2023/11/29 11:01:55;;;;;;;14.53;7.73;;;2.20;83.30;;;;;;5029539;28;20614;-65
2023/11/29 11:04:22;;;;;;;12.37;6.10;;;2.10;82.80;;;;;;5045316;28;20194;-65
2023/11/29 11:06:49;;;;;;;15.23;6.90;;;2.00;83.00;;;;;;5042788;28;20681;-65
2023/11/29 11:09:46;;;;;;;13.70;6.20;;;2.00;83.30;;;;;;5043465;28;20194;-65
2023/11/29 11:12:33;;;;;;;11.80;6.27;;;1.90;83.40;;;;;;4962087;28;20224;-65
2023/11/29 11:15:07;;;;;;;12.70;6.50;;;2.00;83.70;;;;;;5033492;28;20244;-65
2023/11/29 11:17:34;;;;;;;11.93;6.27;;;2.00;83.80;;;;;;5045363;28;20711;-65
2023/11/29 11:20:07;;;;;;;13.70;6.10;;;2.00;83.70;;;;;;5029522;28;20225;-65
2023/11/29 11:22:42;;;;;;;12.23;6.20;;;2.00;84.00;;;;;;5049255;28;20194;-64
2023/11/29 11:25:11;;;;;;;13.03;7.03;;;2.00;84.00;;;;;;5049731;28;20247;-64
2023/11/29 11:27:40;;;;;;;17.97;7.93;;;2.10;84.20;;;;;;5048439;28;20210;-65
2023/11/29 11:30:41;;;;;;;21.17;8.47;;;2.10;84.20;;;;;;5048717;28;20591;-65
2023/11/29 11:33:11;;;;;;;21.77;8.20;;;2.20;84.20;;;;;;5048342;28;20217;-64
2023/11/29 11:35:39;;;;;;;19.27;8.50;;;2.20;84.20;;;;;;5047438;28;20206;-66
2023/11/29 11:38:08;;;;;;;15.53;7.90;;;2.20;84.00;;;;;;5050371;28;20204;-65
2023/11/29 11:40:38;;;;;;;18.13;8.10;;;2.20;83.90;;;;;;5049793;28;20255;-65
2023/11/29 11:43:07;;;;;;;19.90;8.40;;;2.20;83.90;;;;;;5050516;28;20243;-65
2023/11/29 11:45:36;;;;;;;21.13;9.10;;;2.10;83.90;;;;;;5027307;28;20293;-65
2023/11/29 11:48:05;;;;;;;19.67;9.17;;;2.00;84.10;;;;;;5041072;28;20205;-64
2023/11/29 11:50:33;;;;;;;17.90;8.33;;;1.90;84.40;;;;;;5048927;28;20277;-64
2023/11/29 11:53:03;;;;;;;16.67;8.40;;;1.80;84.70;;;;;;5046799;28;20206;-64
2023/11/29 11:55:31;;;;;;;18.13;8.90;;;1.80;85.10;;;;;;5049347;28;20270;-64
2023/11/29 11:58:03;;;;;;;21.63;10.23;;;1.70;85.40;;;;;;5056306;28;20206;-64
2023/11/29 12:00:31;;;;;;;21.53;9.73;;;1.70;85.70;;;;;;5050178;28;20316;-64
2023/11/29 12:03:00;;;;;;;22.00;10.10;;;1.70;85.90;;;;;;5047847;28;20649;-64
2023/11/29 12:05:28;;;;;;;20.17;9.10;;;1.70;86.20;;;;;;5028687;28;20202;-65
2023/11/29 12:07:55;;;;;;;22.67;9.47;;;1.70;86.30;;;;;;5029698;28;20202;-65
2023/11/29 12:10:25;;;;;;;22.67;10.80;;;1.70;86.50;;;;;;5050231;28;20193;-64
2023/11/29 12:12:55;;;;;;;24.47;10.53;;;1.80;86.70;;;;;;5032762;28;20237;-65
2023/11/29 12:15:22;;;;;;;21.57;10.40;;;1.80;86.80;;;;;;5050537;28;20197;-64
2023/11/29 12:17:49;;;;;;;24.10;11.10;;;1.70;86.80;;;;;;5050077;28;20312;-64
2023/11/29 12:20:19;;;;;;;20.27;9.20;;;1.70;87.00;;;;;;5029963;28;20297;-65
2023/11/29 12:22:47;;;;;;;21.40;8.90;;;1.70;87.20;;;;;;5027077;28;20209;-65
2023/11/29 12:25:15;;;;;;;23.90;10.97;;;1.80;87.50;;;;;;5049092;28;20311;-64
2023/11/29 12:27:46;;;;;;;26.53;11.50;;;1.70;87.80;;;;;;5026500;28;20209;-64
2023/11/29 12:30:14;;;;;;;24.03;10.37;;;1.70;87.90;;;;;;5049960;28;20217;-64
2023/11/29 12:32:42;;;;;;;20.27;9.77;;;1.70;87.90;;;;;;5029377;28;20218;-64
2023/11/29 12:35:12;;;;;;;17.03;7.97;;;1.70;88.10;;;;;;5023895;28;20206;-64
2023/11/29 12:37:45;;;;;;;16.60;8.33;;;1.70;88.20;;;;;;5046100;28;20652;-65
2023/11/29 12:40:15;;;;;;;16.60;7.77;;;1.70;88.30;;;;;;5038337;28;20190;-65
2023/11/29 12:42:44;;;;;;;18.77;9.53;;;1.60;88.30;;;;;;5048065;28;20194;-64
2023/11/29 12:45:11;;;;;;;22.90;9.30;;;1.50;88.40;;;;;;5048705;28;20284;-64
2023/11/29 12:47:39;;;;;;;24.30;9.93;;;1.50;88.50;;;;;;5048245;28;20560;-65
2023/11/29 12:50:07;;;;;;;23.23;12.13;;;1.60;88.60;;;;;;5049624;28;20198;-65
2023/11/29 12:52:34;;;;;;;32.77;13.43;;;1.60;88.70;;;;;;5047364;28;20511;-65